sensor_id;sensor_type;location;lat;lon;timestamp;temperature;humidity
11246;DHT22;59870;50.106;8.580;2023-03-23T00:01:05;18.30;60.90
11246;DHT22;59870;50.106;8.580;2023-03-23T00:03:32;18.30;61.10
11246;DHT22;59870;50.106;8.580;2023-03-23T00:05:59;18.30;60.90
11246;DHT22;59870;50.106;8.580;2023-03-23T00:08:35;18.30;61.20
11246;DHT22;59870;50.106;8.580;2023-03-23T00:11:13;18.30;61.50
11246;DHT22;59870;50.106;8.580;2023-03-23T00:13:49;18.30;61.20
11246;DHT22;59870;50.106;8.580;2023-03-23T00:16:20;18.30;61.60
11246;DHT22;59870;50.106;8.580;2023-03-23T00:18:56;18.30;62.10
11246;DHT22;59870;50.106;8.580;2023-03-23T00:21:24;18.20;61.80
11246;DHT22;59870;50.106;8.580;2023-03-23T00:24:19;18.40;62.20
11246;DHT22;59870;50.106;8.580;2023-03-23T00:26:47;18.20;61.90
11246;DHT22;59870;50.106;8.580;2023-03-23T00:29:22;18.20;62.50
11246;DHT22;59870;50.106;8.580;2023-03-23T00:31:51;18.30;62.40
11246;DHT22;59870;50.106;8.580;2023-03-23T00:34:20;18.20;62.30
11246;DHT22;59870;50.106;8.580;2023-03-23T00:36:48;18.20;62.50
11246;DHT22;59870;50.106;8.580;2023-03-23T00:39:16;18.20;62.60
11246;DHT22;59870;50.106;8.580;2023-03-23T00:41:43;18.20;62.60
11246;DHT22;59870;50.106;8.580;2023-03-23T00:44:11;18.20;62.90
11246;DHT22;59870;50.106;8.580;2023-03-23T00:46:43;18.50;63.00
11246;DHT22;59870;50.106;8.580;2023-03-23T00:49:16;18.20;63.20
11246;DHT22;59870;50.106;8.580;2023-03-23T00:51:44;18.20;63.20
11246;DHT22;59870;50.106;8.580;2023-03-23T00:54:11;18.20;63.50
11246;DHT22;59870;50.106;8.580;2023-03-23T00:56:38;18.10;63.40
11246;DHT22;59870;50.106;8.580;2023-03-23T00:59:08;18.10;63.60
11246;DHT22;59870;50.106;8.580;2023-03-23T01:01:34;18.10;63.00
11246;DHT22;59870;50.106;8.580;2023-03-23T01:04:01;18.10;62.50
11246;DHT22;59870;50.106;8.580;2023-03-23T01:06:32;18.20;63.00
11246;DHT22;59870;50.106;8.580;2023-03-23T01:09:02;18.10;62.80
11246;DHT22;59870;50.106;8.580;2023-03-23T01:11:29;18.10;62.90
11246;DHT22;59870;50.106;8.580;2023-03-23T01:13:55;18.10;62.90
11246;DHT22;59870;50.106;8.580;2023-03-23T01:16:22;18.10;62.80
11246;DHT22;59870;50.106;8.580;2023-03-23T01:18:48;18.10;62.80
11246;DHT22;59870;50.106;8.580;2023-03-23T01:21:16;18.20;63.00
11246;DHT22;59870;50.106;8.580;2023-03-23T01:23:44;18.10;62.60
11246;DHT22;59870;50.106;8.580;2023-03-23T01:26:16;18.10;62.90
11246;DHT22;59870;50.106;8.580;2023-03-23T01:28:43;18.10;62.50
11246;DHT22;59870;50.106;8.580;2023-03-23T01:31:13;18.10;62.80
11246;DHT22;59870;50.106;8.580;2023-03-23T01:33:40;18.20;63.00
11246;DHT22;59870;50.106;8.580;2023-03-23T01:36:11;18.10;62.80
11246;DHT22;59870;50.106;8.580;2023-03-23T01:38:38;18.10;62.90
11246;DHT22;59870;50.106;8.580;2023-03-23T01:41:05;18.10;63.00
11246;DHT22;59870;50.106;8.580;2023-03-23T01:43:31;18.10;63.40
11246;DHT22;59870;50.106;8.580;2023-03-23T01:45:58;18.00;63.40
11246;DHT22;59870;50.106;8.580;2023-03-23T01:48:28;18.00;63.40
11246;DHT22;59870;50.106;8.580;2023-03-23T01:53:40;18.00;63.20
11246;DHT22;59870;50.106;8.580;2023-03-23T01:56:09;18.00;63.30
11246;DHT22;59870;50.106;8.580;2023-03-23T01:58:38;18.10;63.10
11246;DHT22;59870;50.106;8.580;2023-03-23T02:01:08;18.30;63.60
11246;DHT22;59870;50.106;8.580;2023-03-23T02:03:40;18.30;63.50
11246;DHT22;59870;50.106;8.580;2023-03-23T02:06:07;18.00;63.30
11246;DHT22;59870;50.106;8.580;2023-03-23T02:08:48;18.00;63.20
11246;DHT22;59870;50.106;8.580;2023-03-23T02:11:21;18.00;63.50
11246;DHT22;59870;50.106;8.580;2023-03-23T02:13:49;18.00;63.40
11246;DHT22;59870;50.106;8.580;2023-03-23T02:22:50;18.00;64.00
11246;DHT22;59870;50.106;8.580;2023-03-23T02:25:33;18.00;63.90
11246;DHT22;59870;50.106;8.580;2023-03-23T02:33:31;18.00;64.60
11246;DHT22;59870;50.106;8.580;2023-03-23T02:39:05;18.00;65.80
11246;DHT22;59870;50.106;8.580;2023-03-23T02:41:43;18.00;66.60
11246;DHT22;59870;50.106;8.580;2023-03-23T02:44:12;18.00;66.30
11246;DHT22;59870;50.106;8.580;2023-03-23T02:46:40;18.20;67.50
11246;DHT22;59870;50.106;8.580;2023-03-23T02:49:09;18.00;69.10
11246;DHT22;59870;50.106;8.580;2023-03-23T02:51:38;17.90;71.00
11246;DHT22;59870;50.106;8.580;2023-03-23T02:54:05;17.90;71.80
11246;DHT22;59870;50.106;8.580;2023-03-23T02:56:33;17.90;72.50
11246;DHT22;59870;50.106;8.580;2023-03-23T02:59:03;17.90;72.90
11246;DHT22;59870;50.106;8.580;2023-03-23T03:04:09;17.70;72.90
11246;DHT22;59870;50.106;8.580;2023-03-23T03:09:55;17.60;73.40
11246;DHT22;59870;50.106;8.580;2023-03-23T03:12:37;17.50;73.80
11246;DHT22;59870;50.106;8.580;2023-03-23T03:17:43;17.50;73.20
11246;DHT22;59870;50.106;8.580;2023-03-23T03:20:12;17.40;72.60
11246;DHT22;59870;50.106;8.580;2023-03-23T03:22:42;17.50;73.00
11246;DHT22;59870;50.106;8.580;2023-03-23T03:25:11;17.50;73.60
11246;DHT22;59870;50.106;8.580;2023-03-23T03:27:42;17.50;74.10
11246;DHT22;59870;50.106;8.580;2023-03-23T03:30:22;17.50;74.20
11246;DHT22;59870;50.106;8.580;2023-03-23T03:32:52;17.40;74.20
11246;DHT22;59870;50.106;8.580;2023-03-23T03:35:24;17.40;75.50
11246;DHT22;59870;50.106;8.580;2023-03-23T03:37:51;17.40;75.40
11246;DHT22;59870;50.106;8.580;2023-03-23T03:40:20;17.40;76.00
11246;DHT22;59870;50.106;8.580;2023-03-23T03:42:47;17.40;76.40
11246;DHT22;59870;50.106;8.580;2023-03-23T03:45:16;17.40;75.60
11246;DHT22;59870;50.106;8.580;2023-03-23T03:47:43;17.40;75.40
11246;DHT22;59870;50.106;8.580;2023-03-23T03:50:12;17.40;75.80
11246;DHT22;59870;50.106;8.580;2023-03-23T03:52:39;17.40;76.40
11246;DHT22;59870;50.106;8.580;2023-03-23T03:55:08;17.40;76.20
11246;DHT22;59870;50.106;8.580;2023-03-23T03:57:36;17.40;76.00
11246;DHT22;59870;50.106;8.580;2023-03-23T04:00:07;17.30;76.30
11246;DHT22;59870;50.106;8.580;2023-03-23T04:02:47;17.30;77.00
11246;DHT22;59870;50.106;8.580;2023-03-23T04:05:17;17.30;76.00
11246;DHT22;59870;50.106;8.580;2023-03-23T04:07:48;17.30;75.90
11246;DHT22;59870;50.106;8.580;2023-03-23T04:10:20;17.30;76.20
11246;DHT22;59870;50.106;8.580;2023-03-23T04:12:49;17.30;76.00
11246;DHT22;59870;50.106;8.580;2023-03-23T04:15:34;17.30;75.50
11246;DHT22;59870;50.106;8.580;2023-03-23T04:18:01;17.40;75.50
11246;DHT22;59870;50.106;8.580;2023-03-23T04:20:30;17.30;75.10
11246;DHT22;59870;50.106;8.580;2023-03-23T04:22:56;17.30;75.60
11246;DHT22;59870;50.106;8.580;2023-03-23T04:25:24;17.60;75.40
11246;DHT22;59870;50.106;8.580;2023-03-23T04:27:53;17.30;75.70
11246;DHT22;59870;50.106;8.580;2023-03-23T04:30:25;17.30;75.60
11246;DHT22;59870;50.106;8.580;2023-03-23T04:33:07;17.30;76.10
11246;DHT22;59870;50.106;8.580;2023-03-23T04:35:33;17.60;76.70
11246;DHT22;59870;50.106;8.580;2023-03-23T04:38:12;17.70;77.00
11246;DHT22;59870;50.106;8.580;2023-03-23T04:40:41;17.30;76.90
11246;DHT22;59870;50.106;8.580;2023-03-23T04:43:19;17.20;76.80
11246;DHT22;59870;50.106;8.580;2023-03-23T04:46:16;17.20;76.70
11246;DHT22;59870;50.106;8.580;2023-03-23T04:48:45;17.20;76.90
11246;DHT22;59870;50.106;8.580;2023-03-23T04:51:27;17.20;77.80
11246;DHT22;59870;50.106;8.580;2023-03-23T04:53:54;17.20;77.50
11246;DHT22;59870;50.106;8.580;2023-03-23T04:56:21;17.10;78.00
11246;DHT22;59870;50.106;8.580;2023-03-23T04:58:48;17.10;77.60
11246;DHT22;59870;50.106;8.580;2023-03-23T05:01:17;17.10;78.10
11246;DHT22;59870;50.106;8.580;2023-03-23T05:04:04;17.10;77.70
11246;DHT22;59870;50.106;8.580;2023-03-23T05:06:31;17.10;77.70
11246;DHT22;59870;50.106;8.580;2023-03-23T05:09:02;17.10;78.20
11246;DHT22;59870;50.106;8.580;2023-03-23T05:11:30;17.10;78.50
11246;DHT22;59870;50.106;8.580;2023-03-23T05:13:57;17.10;78.20
11246;DHT22;59870;50.106;8.580;2023-03-23T05:16:24;16.70;77.90
11246;DHT22;59870;50.106;8.580;2023-03-23T05:18:50;17.10;78.20
11246;DHT22;59870;50.106;8.580;2023-03-23T05:21:18;17.00;78.80
11246;DHT22;59870;50.106;8.580;2023-03-23T05:23:49;17.00;78.70
11246;DHT22;59870;50.106;8.580;2023-03-23T05:26:21;17.00;79.20
11246;DHT22;59870;50.106;8.580;2023-03-23T05:28:51;17.00;79.80
11246;DHT22;59870;50.106;8.580;2023-03-23T05:31:23;16.90;80.10
11246;DHT22;59870;50.106;8.580;2023-03-23T05:33:51;16.90;80.20
11246;DHT22;59870;50.106;8.580;2023-03-23T05:36:32;16.80;80.80
11246;DHT22;59870;50.106;8.580;2023-03-23T05:39:14;17.10;82.10
11246;DHT22;59870;50.106;8.580;2023-03-23T05:42:07;16.70;82.50
11246;DHT22;59870;50.106;8.580;2023-03-23T05:44:55;16.70;82.80
11246;DHT22;59870;50.106;8.580;2023-03-23T05:47:21;16.60;82.30
11246;DHT22;59870;50.106;8.580;2023-03-23T05:49:54;16.70;82.80
11246;DHT22;59870;50.106;8.580;2023-03-23T05:52:22;16.70;82.90
11246;DHT22;59870;50.106;8.580;2023-03-23T05:54:51;16.70;82.90
11246;DHT22;59870;50.106;8.580;2023-03-23T05:57:20;16.80;83.60
11246;DHT22;59870;50.106;8.580;2023-03-23T06:00:04;16.80;82.50
11246;DHT22;59870;50.106;8.580;2023-03-23T06:02:56;16.80;82.50
11246;DHT22;59870;50.106;8.580;2023-03-23T06:05:31;16.80;82.90
11246;DHT22;59870;50.106;8.580;2023-03-23T06:08:02;16.70;82.70
11246;DHT22;59870;50.106;8.580;2023-03-23T06:10:31;16.70;82.70
11246;DHT22;59870;50.106;8.580;2023-03-23T06:13:45;16.70;82.50
11246;DHT22;59870;50.106;8.580;2023-03-23T06:16:18;16.70;82.80
11246;DHT22;59870;50.106;8.580;2023-03-23T06:18:57;16.90;83.40
11246;DHT22;59870;50.106;8.580;2023-03-23T06:21:35;16.90;83.80
11246;DHT22;59870;50.106;8.580;2023-03-23T06:24:10;16.60;84.00
11246;DHT22;59870;50.106;8.580;2023-03-23T06:26:38;16.50;84.70
11246;DHT22;59870;50.106;8.580;2023-03-23T06:29:09;16.50;84.40
11246;DHT22;59870;50.106;8.580;2023-03-23T06:31:48;16.60;85.10
11246;DHT22;59870;50.106;8.580;2023-03-23T06:34:15;16.60;85.60
11246;DHT22;59870;50.106;8.580;2023-03-23T06:37:01;16.60;85.90
11246;DHT22;59870;50.106;8.580;2023-03-23T06:40:07;16.60;85.20
11246;DHT22;59870;50.106;8.580;2023-03-23T06:42:39;16.60;85.90
11246;DHT22;59870;50.106;8.580;2023-03-23T06:45:30;16.60;85.90
11246;DHT22;59870;50.106;8.580;2023-03-23T06:48:19;16.70;85.90
11246;DHT22;59870;50.106;8.580;2023-03-23T06:50:56;16.70;85.60
11246;DHT22;59870;50.106;8.580;2023-03-23T06:57:12;16.70;85.30
11246;DHT22;59870;50.106;8.580;2023-03-23T06:59:40;16.80;85.10
11246;DHT22;59870;50.106;8.580;2023-03-23T07:02:14;16.80;85.70
11246;DHT22;59870;50.106;8.580;2023-03-23T07:04:55;16.80;86.10
11246;DHT22;59870;50.106;8.580;2023-03-23T07:07:24;16.70;85.90
11246;DHT22;59870;50.106;8.580;2023-03-23T07:10:09;16.80;85.80
11246;DHT22;59870;50.106;8.580;2023-03-23T07:12:37;16.80;85.90
11246;DHT22;59870;50.106;8.580;2023-03-23T07:15:06;16.80;86.20
11246;DHT22;59870;50.106;8.580;2023-03-23T07:17:37;16.80;86.70
11246;DHT22;59870;50.106;8.580;2023-03-23T07:20:12;16.70;88.00
11246;DHT22;59870;50.106;8.580;2023-03-23T07:22:39;16.80;87.80
11246;DHT22;59870;50.106;8.580;2023-03-23T07:25:17;16.80;88.20
11246;DHT22;59870;50.106;8.580;2023-03-23T07:27:49;16.80;88.70
11246;DHT22;59870;50.106;8.580;2023-03-23T07:30:17;16.80;88.40
11246;DHT22;59870;50.106;8.580;2023-03-23T07:32:44;16.80;88.40
11246;DHT22;59870;50.106;8.580;2023-03-23T07:35:11;16.80;88.80
11246;DHT22;59870;50.106;8.580;2023-03-23T07:38:14;16.80;88.80
11246;DHT22;59870;50.106;8.580;2023-03-23T07:40:43;16.80;88.60
11246;DHT22;59870;50.106;8.580;2023-03-23T07:43:14;16.90;88.60
11246;DHT22;59870;50.106;8.580;2023-03-23T07:45:59;16.90;88.70
11246;DHT22;59870;50.106;8.580;2023-03-23T07:48:34;16.90;88.90
11246;DHT22;59870;50.106;8.580;2023-03-23T07:51:01;16.90;88.80
11246;DHT22;59870;50.106;8.580;2023-03-23T07:53:30;16.80;89.10
11246;DHT22;59870;50.106;8.580;2023-03-23T07:56:12;16.90;89.50
11246;DHT22;59870;50.106;8.580;2023-03-23T07:58:57;16.90;89.30
11246;DHT22;59870;50.106;8.580;2023-03-23T08:01:23;16.90;89.10
11246;DHT22;59870;50.106;8.580;2023-03-23T08:04:25;16.90;89.00
11246;DHT22;59870;50.106;8.580;2023-03-23T08:07:14;17.10;89.50
11246;DHT22;59870;50.106;8.580;2023-03-23T08:10:05;16.90;88.90
11246;DHT22;59870;50.106;8.580;2023-03-23T08:12:43;16.90;88.70
11246;DHT22;59870;50.106;8.580;2023-03-23T08:15:17;16.90;89.00
11246;DHT22;59870;50.106;8.580;2023-03-23T08:18:10;16.90;88.80
11246;DHT22;59870;50.106;8.580;2023-03-23T08:20:57;16.90;88.60
11246;DHT22;59870;50.106;8.580;2023-03-23T08:23:53;17.40;89.10
11246;DHT22;59870;50.106;8.580;2023-03-23T08:26:31;16.90;88.60
11246;DHT22;59870;50.106;8.580;2023-03-23T08:29:12;16.90;88.40
11246;DHT22;59870;50.106;8.580;2023-03-23T08:31:58;16.90;88.20
11246;DHT22;59870;50.106;8.580;2023-03-23T08:34:53;16.90;88.20
11246;DHT22;59870;50.106;8.580;2023-03-23T08:37:48;17.00;88.20
11246;DHT22;59870;50.106;8.580;2023-03-23T08:40:37;17.00;88.20
11246;DHT22;59870;50.106;8.580;2023-03-23T08:43:36;17.40;88.30
11246;DHT22;59870;50.106;8.580;2023-03-23T08:46:30;17.10;88.10
11246;DHT22;59870;50.106;8.580;2023-03-23T08:49:14;17.10;87.80
11246;DHT22;59870;50.106;8.580;2023-03-23T08:52:03;17.10;88.00
11246;DHT22;59870;50.106;8.580;2023-03-23T08:54:50;17.20;88.00
11246;DHT22;59870;50.106;8.580;2023-03-23T08:57:35;17.10;88.10
11246;DHT22;59870;50.106;8.580;2023-03-23T09:00:31;17.20;88.20
11246;DHT22;59870;50.106;8.580;2023-03-23T09:03:10;17.60;88.40
11246;DHT22;59870;50.106;8.580;2023-03-23T09:06:01;17.20;88.40
11246;DHT22;59870;50.106;8.580;2023-03-23T09:08:43;17.30;88.20
11246;DHT22;59870;50.106;8.580;2023-03-23T09:11:11;17.30;87.80
11246;DHT22;59870;50.106;8.580;2023-03-23T09:13:38;17.30;88.00
11246;DHT22;59870;50.106;8.580;2023-03-23T09:16:05;17.40;87.80
11246;DHT22;59870;50.106;8.580;2023-03-23T09:18:33;17.40;87.50
11246;DHT22;59870;50.106;8.580;2023-03-23T09:21:01;17.40;87.30
11246;DHT22;59870;50.106;8.580;2023-03-23T09:23:27;17.50;86.80
11246;DHT22;59870;50.106;8.580;2023-03-23T09:25:54;17.50;87.00
11246;DHT22;59870;50.106;8.580;2023-03-23T09:28:20;17.60;86.90
11246;DHT22;59870;50.106;8.580;2023-03-23T09:30:47;17.70;87.30
11246;DHT22;59870;50.106;8.580;2023-03-23T09:33:14;17.80;86.30
11246;DHT22;59870;50.106;8.580;2023-03-23T09:35:41;17.80;86.80
11246;DHT22;59870;50.106;8.580;2023-03-23T09:38:10;18.10;86.90
11246;DHT22;59870;50.106;8.580;2023-03-23T09:41:12;18.40;86.80
11246;DHT22;59870;50.106;8.580;2023-03-23T09:44:09;18.00;86.40
11246;DHT22;59870;50.106;8.580;2023-03-23T09:46:42;18.20;85.10
11246;DHT22;59870;50.106;8.580;2023-03-23T09:49:23;18.40;84.90
11246;DHT22;59870;50.106;8.580;2023-03-23T09:51:55;18.60;84.50
11246;DHT22;59870;50.106;8.580;2023-03-23T09:54:28;18.80;84.00
11246;DHT22;59870;50.106;8.580;2023-03-23T09:56:58;19.00;82.80
11246;DHT22;59870;50.106;8.580;2023-03-23T09:59:39;19.10;83.30
11246;DHT22;59870;50.106;8.580;2023-03-23T10:02:14;19.20;83.60
11246;DHT22;59870;50.106;8.580;2023-03-23T10:04:46;19.30;83.40
11246;DHT22;59870;50.106;8.580;2023-03-23T10:07:15;19.40;84.80
11246;DHT22;59870;50.106;8.580;2023-03-23T10:09:44;19.40;83.70
11246;DHT22;59870;50.106;8.580;2023-03-23T10:15:01;19.50;84.30
11246;DHT22;59870;50.106;8.580;2023-03-23T10:18:32;19.40;82.50
11246;DHT22;59870;50.106;8.580;2023-03-23T10:25:40;19.30;83.20
11246;DHT22;59870;50.106;8.580;2023-03-23T10:28:17;19.20;82.20
11246;DHT22;59870;50.106;8.580;2023-03-23T10:30:57;19.20;81.60
11246;DHT22;59870;50.106;8.580;2023-03-23T10:33:40;19.20;81.10
11246;DHT22;59870;50.106;8.580;2023-03-23T10:36:17;19.20;81.30
11246;DHT22;59870;50.106;8.580;2023-03-23T10:39:11;19.20;80.80
11246;DHT22;59870;50.106;8.580;2023-03-23T10:41:38;19.20;80.70
11246;DHT22;59870;50.106;8.580;2023-03-23T10:44:17;19.20;80.50
11246;DHT22;59870;50.106;8.580;2023-03-23T10:46:45;19.20;80.00
11246;DHT22;59870;50.106;8.580;2023-03-23T10:49:27;19.20;80.00
11246;DHT22;59870;50.106;8.580;2023-03-23T10:52:23;19.30;80.50
11246;DHT22;59870;50.106;8.580;2023-03-23T10:55:07;19.30;80.60
11246;DHT22;59870;50.106;8.580;2023-03-23T10:57:37;19.40;79.40
11246;DHT22;59870;50.106;8.580;2023-03-23T11:00:14;19.50;79.20
11246;DHT22;59870;50.106;8.580;2023-03-23T11:02:46;19.50;78.60
11246;DHT22;59870;50.106;8.580;2023-03-23T11:05:20;19.60;78.30
11246;DHT22;59870;50.106;8.580;2023-03-23T11:07:52;19.60;78.50
11246;DHT22;59870;50.106;8.580;2023-03-23T11:10:28;19.60;78.90
11246;DHT22;59870;50.106;8.580;2023-03-23T11:12:59;19.50;79.60
11246;DHT22;59870;50.106;8.580;2023-03-23T11:18:03;19.50;80.10
11246;DHT22;59870;50.106;8.580;2023-03-23T11:20:34;19.50;80.20
11246;DHT22;59870;50.106;8.580;2023-03-23T11:23:30;19.50;80.80
11246;DHT22;59870;50.106;8.580;2023-03-23T11:28:32;19.50;81.50
11246;DHT22;59870;50.106;8.580;2023-03-23T11:31:01;19.50;81.70
11246;DHT22;59870;50.106;8.580;2023-03-23T11:33:30;19.60;80.40
11246;DHT22;59870;50.106;8.580;2023-03-23T11:35:57;19.70;81.60
11246;DHT22;59870;50.106;8.580;2023-03-23T11:38:24;19.70;80.70
11246;DHT22;59870;50.106;8.580;2023-03-23T11:40:54;20.00;81.10
11246;DHT22;59870;50.106;8.580;2023-03-23T11:43:23;20.20;81.60
11246;DHT22;59870;50.106;8.580;2023-03-23T11:46:11;20.40;80.50
11246;DHT22;59870;50.106;8.580;2023-03-23T11:51:42;20.30;77.90
11246;DHT22;59870;50.106;8.580;2023-03-23T11:54:19;20.40;77.50
11246;DHT22;59870;50.106;8.580;2023-03-23T11:56:48;20.40;76.20
11246;DHT22;59870;50.106;8.580;2023-03-23T11:59:17;20.50;77.70
11246;DHT22;59870;50.106;8.580;2023-03-23T12:12:51;20.80;75.30
11246;DHT22;59870;50.106;8.580;2023-03-23T12:15:33;20.80;75.00
11246;DHT22;59870;50.106;8.580;2023-03-23T12:21:22;20.90;75.10
11246;DHT22;59870;50.106;8.580;2023-03-23T12:23:34;20.80;74.70
11246;DHT22;59870;50.106;8.580;2023-03-23T12:34:52;20.60;75.20
11246;DHT22;59870;50.106;8.580;2023-03-23T12:40:28;20.70;75.10
11246;DHT22;59870;50.106;8.580;2023-03-23T12:46:07;20.80;74.90
11246;DHT22;59870;50.106;8.580;2023-03-23T12:48:47;21.30;75.20
11246;DHT22;59870;50.106;8.580;2023-03-23T12:51:21;20.90;73.90
11246;DHT22;59870;50.106;8.580;2023-03-23T12:59:36;20.80;74.80
11246;DHT22;59870;50.106;8.580;2023-03-23T13:02:22;20.80;75.00
11246;DHT22;59870;50.106;8.580;2023-03-23T13:07:41;20.90;75.20
11246;DHT22;59870;50.106;8.580;2023-03-23T13:10:21;20.90;74.50
11246;DHT22;59870;50.106;8.580;2023-03-23T13:12:50;20.90;74.60
11246;DHT22;59870;50.106;8.580;2023-03-23T13:18:18;21.00;74.90
11246;DHT22;59870;50.106;8.580;2023-03-23T13:21:24;21.00;73.40
11246;DHT22;59870;50.106;8.580;2023-03-23T13:24:06;20.90;74.80
11246;DHT22;59870;50.106;8.580;2023-03-23T13:26:38;20.90;73.80
11246;DHT22;59870;50.106;8.580;2023-03-23T13:29:21;20.50;72.90
11246;DHT22;59870;50.106;8.580;2023-03-23T13:32:12;20.60;73.20
11246;DHT22;59870;50.106;8.580;2023-03-23T13:34:41;21.00;74.40
11246;DHT22;59870;50.106;8.580;2023-03-23T13:37:24;21.00;73.10
11246;DHT22;59870;50.106;8.580;2023-03-23T13:39:55;20.90;73.20
11246;DHT22;59870;50.106;8.580;2023-03-23T13:42:27;21.20;73.70
11246;DHT22;59870;50.106;8.580;2023-03-23T13:45:18;20.80;73.30
11246;DHT22;59870;50.106;8.580;2023-03-23T13:47:46;20.80;73.80
11246;DHT22;59870;50.106;8.580;2023-03-23T13:50:43;20.80;74.80
11246;DHT22;59870;50.106;8.580;2023-03-23T13:53:14;20.80;74.20
11246;DHT22;59870;50.106;8.580;2023-03-23T13:55:47;20.80;74.30
11246;DHT22;59870;50.106;8.580;2023-03-23T13:58:25;20.80;74.10
11246;DHT22;59870;50.106;8.580;2023-03-23T14:01:39;20.80;74.10
11246;DHT22;59870;50.106;8.580;2023-03-23T14:04:17;20.70;74.30
11246;DHT22;59870;50.106;8.580;2023-03-23T14:06:49;20.70;74.90
11246;DHT22;59870;50.106;8.580;2023-03-23T14:09:26;20.70;74.40
11246;DHT22;59870;50.106;8.580;2023-03-23T14:11:57;20.60;73.40
11246;DHT22;59870;50.106;8.580;2023-03-23T14:14:28;21.00;74.70
11246;DHT22;59870;50.106;8.580;2023-03-23T14:17:17;20.60;74.70
11246;DHT22;59870;50.106;8.580;2023-03-23T14:19:50;20.50;74.50
11246;DHT22;59870;50.106;8.580;2023-03-23T14:22:33;20.50;74.90
11246;DHT22;59870;50.106;8.580;2023-03-23T14:25:15;20.50;75.70
11246;DHT22;59870;50.106;8.580;2023-03-23T14:27:43;20.40;75.70
11246;DHT22;59870;50.106;8.580;2023-03-23T14:30:19;20.40;75.60
11246;DHT22;59870;50.106;8.580;2023-03-23T14:32:46;20.40;75.80
11246;DHT22;59870;50.106;8.580;2023-03-23T14:35:30;20.40;75.20
11246;DHT22;59870;50.106;8.580;2023-03-23T14:37:58;20.30;75.00
11246;DHT22;59870;50.106;8.580;2023-03-23T14:40:27;20.20;75.00
11246;DHT22;59870;50.106;8.580;2023-03-23T14:42:54;20.20;75.30
11246;DHT22;59870;50.106;8.580;2023-03-23T14:45:22;20.00;75.20
11246;DHT22;59870;50.106;8.580;2023-03-23T14:48:00;20.00;75.10
11246;DHT22;59870;50.106;8.580;2023-03-23T14:50:38;20.00;75.60
11246;DHT22;59870;50.106;8.580;2023-03-23T14:55:53;19.90;76.20
11246;DHT22;59870;50.106;8.580;2023-03-23T14:58:22;19.90;76.60
11246;DHT22;59870;50.106;8.580;2023-03-23T15:03:21;19.90;76.90
11246;DHT22;59870;50.106;8.580;2023-03-23T15:05:55;19.90;77.70
11246;DHT22;59870;50.106;8.580;2023-03-23T15:08:41;19.90;77.10
11246;DHT22;59870;50.106;8.580;2023-03-23T15:13:51;19.90;76.00
11246;DHT22;59870;50.106;8.580;2023-03-23T15:16:26;19.80;76.60
11246;DHT22;59870;50.106;8.580;2023-03-23T15:19:00;19.90;76.70
11246;DHT22;59870;50.106;8.580;2023-03-23T15:21:35;19.80;76.20
11246;DHT22;59870;50.106;8.580;2023-03-23T15:27:24;19.80;75.90
11246;DHT22;59870;50.106;8.580;2023-03-23T15:30:12;19.80;76.10
11246;DHT22;59870;50.106;8.580;2023-03-23T15:32:45;19.70;75.80
11246;DHT22;59870;50.106;8.580;2023-03-23T15:35:20;19.70;76.00
11246;DHT22;59870;50.106;8.580;2023-03-23T15:38:14;19.60;75.90
11246;DHT22;59870;50.106;8.580;2023-03-23T15:40:44;19.60;76.00
11246;DHT22;59870;50.106;8.580;2023-03-23T15:46:27;19.50;76.00
11246;DHT22;59870;50.106;8.580;2023-03-23T15:51:25;19.60;76.20
11246;DHT22;59870;50.106;8.580;2023-03-23T15:53:53;20.00;76.70
11246;DHT22;59870;50.106;8.580;2023-03-23T15:56:20;19.60;76.40
11246;DHT22;59870;50.106;8.580;2023-03-23T15:58:47;19.60;76.90
11246;DHT22;59870;50.106;8.580;2023-03-23T16:01:21;19.60;76.20
11246;DHT22;59870;50.106;8.580;2023-03-23T16:03:52;19.60;76.80
11246;DHT22;59870;50.106;8.580;2023-03-23T16:06:23;19.70;77.30
11246;DHT22;59870;50.106;8.580;2023-03-23T16:08:55;19.70;78.00
11246;DHT22;59870;50.106;8.580;2023-03-23T16:11:25;19.70;77.90
11246;DHT22;59870;50.106;8.580;2023-03-23T16:13:53;19.70;77.80
11246;DHT22;59870;50.106;8.580;2023-03-23T16:16:24;19.70;78.00
11246;DHT22;59870;50.106;8.580;2023-03-23T16:18:53;19.70;78.00
11246;DHT22;59870;50.106;8.580;2023-03-23T16:21:22;19.70;78.40
11246;DHT22;59870;50.106;8.580;2023-03-23T16:23:49;19.60;79.20
11246;DHT22;59870;50.106;8.580;2023-03-23T16:26:17;19.60;80.20
11246;DHT22;59870;50.106;8.580;2023-03-23T16:28:45;19.50;80.70
11246;DHT22;59870;50.106;8.580;2023-03-23T16:31:12;19.90;81.00
11246;DHT22;59870;50.106;8.580;2023-03-23T16:33:40;19.50;81.20
11246;DHT22;59870;50.106;8.580;2023-03-23T16:36:11;19.40;82.30
11246;DHT22;59870;50.106;8.580;2023-03-23T16:38:40;19.40;82.10
11246;DHT22;59870;50.106;8.580;2023-03-23T16:41:17;19.30;82.40
11246;DHT22;59870;50.106;8.580;2023-03-23T16:43:44;19.20;82.50
11246;DHT22;59870;50.106;8.580;2023-03-23T16:46:12;19.20;83.40
11246;DHT22;59870;50.106;8.580;2023-03-23T16:48:40;19.10;82.90
11246;DHT22;59870;50.106;8.580;2023-03-23T16:51:08;19.10;83.50
11246;DHT22;59870;50.106;8.580;2023-03-23T16:53:35;19.10;83.70
11246;DHT22;59870;50.106;8.580;2023-03-23T16:56:08;19.00;84.10
11246;DHT22;59870;50.106;8.580;2023-03-23T16:58:35;18.90;83.60
11246;DHT22;59870;50.106;8.580;2023-03-23T17:01:03;19.10;84.10
11246;DHT22;59870;50.106;8.580;2023-03-23T17:03:32;18.90;83.70
11246;DHT22;59870;50.106;8.580;2023-03-23T17:06:00;18.90;83.80
11246;DHT22;59870;50.106;8.580;2023-03-23T17:08:27;18.80;83.90
11246;DHT22;59870;50.106;8.580;2023-03-23T17:10:55;19.20;84.40
11246;DHT22;59870;50.106;8.580;2023-03-23T17:13:23;18.80;84.10
11246;DHT22;59870;50.106;8.580;2023-03-23T17:15:54;19.10;84.80
11246;DHT22;59870;50.106;8.580;2023-03-23T17:18:24;19.10;85.00
11246;DHT22;59870;50.106;8.580;2023-03-23T17:20:52;18.70;84.30
11246;DHT22;59870;50.106;8.580;2023-03-23T17:23:20;18.70;84.40
11246;DHT22;59870;50.106;8.580;2023-03-23T17:25:48;18.60;84.40
11246;DHT22;59870;50.106;8.580;2023-03-23T17:28:16;18.60;84.60
11246;DHT22;59870;50.106;8.580;2023-03-23T17:30:47;18.60;84.10
11246;DHT22;59870;50.106;8.580;2023-03-23T17:33:14;18.50;84.20
11246;DHT22;59870;50.106;8.580;2023-03-23T17:35:44;18.80;84.30
11246;DHT22;59870;50.106;8.580;2023-03-23T17:38:12;18.50;84.20
11246;DHT22;59870;50.106;8.580;2023-03-23T17:40:40;18.40;84.20
11246;DHT22;59870;50.106;8.580;2023-03-23T17:43:08;18.60;84.40
11246;DHT22;59870;50.106;8.580;2023-03-23T17:45:36;18.30;84.30
11246;DHT22;59870;50.106;8.580;2023-03-23T17:48:03;18.30;84.00
11246;DHT22;59870;50.106;8.580;2023-03-23T17:50:35;18.30;84.10
11246;DHT22;59870;50.106;8.580;2023-03-23T17:53:06;18.20;84.20
11246;DHT22;59870;50.106;8.580;2023-03-23T17:55:33;18.20;84.40